Tiempo atmosférico en la estación meteorológica de Écija, Sevilla (130 m.)



Fecha
DESCASC
Temp. máxima en grados centígrados (hora)
DESCASC
Temp. mínima en grados centígrados (hora)
DESCASC
Temp. media en grados centígrados
DESCASC
Racha de viento máxima en m/sg (hora)
DESCASC
Velocidad máxima media en intervalos de 10 minutos(hora)
DESCASC
Precipitaciones diarias en mm
DESCASC
Precipitaciones de 00:00 a 06:00 en mm
DESCASC
Precipitaciones de 06:00 a 12:00 en mm
DESCASC
Precipitaciones de 12:00 a 18:00 en mm
DESCASC
Precipitaciones de 18:00 a 24:00 en mm
DESCASC
19-09-2019 31.5 (17:50) 14.9 (07:40) 23.2 8.61 (00:30) 5.28 (00:10) 0 0 0 0 0
18-09-2019 30.5 (17:30) 16.6 (08:00) 23.6 10 (17:00) 6.11 (23:30) 0 0 0 0 0
17-09-2019 30 (17:20) 17.7 (00:00) 23.9 10.28 (23:20) 6.11 (23:10) 0.2 0 0 0.2 0
16-09-2019 31.5 (17:10) 17.1 (00:00) 24.3 7.22 (22:50) 4.72 (22:50) 0 0 0 0 0
15-09-2019 29.4 (17:30) 18.8 (00:00) 24.1 7.78 (17:40) 5.28 (23:20) 0 0 0 0 0
14-09-2019 25.1 (17:40) 15.3 (00:00) 20.2 6.67 (15:20) 4.44 (17:00) 6.5 0 3.4 1.7 1.4
13-09-2019 28.9 (18:10) 16.9 (00:00) 22.9 17.5 (18:30) 11.11 (18:30) 3.2 0 0 0 3.2
12-09-2019 28 (15:50) 18.3 (00:00) 23.1 14.72 (21:50) 9.72 (22:00) 0.3 0 0.3 0 0
11-09-2019 29.1 (17:50) 14.5 (00:00) 21.8 10.28 (14:30) 6.39 (23:50) 0 0 0 0 0
10-09-2019 28.3 (16:40) 16.6 (08:20) 22.4 10.56 (15:40) 7.5 (00:40) 0 0 0 0 0
09-09-2019 33.3 (17:30) 18.9 (08:20) 26.1 13.33 (21:40) 8.61 (21:40) 0 0 0 0 0
08-09-2019 31.2 (14:50) 21.6 (00:00) 26.4 10.28 (19:20) 6.39 (00:10) 0 0 0 0 0
07-09-2019 34.1 (15:40) 20.7 (00:00) 27.4 11.39 (22:40) 7.5 (22:40) 0 0 0 0 0
06-09-2019 34.3 (17:50) 21.3 (00:00) 27.8 8.61 (18:40) 5.83 (18:40) 0 0 0 0 0
05-09-2019 36.6 (17:20) 19.8 (00:00) 28.2 10.28 (00:10) 6.67 (20:30) 0 0 0 0 0
04-09-2019 36.7 (18:10) 24.5 (00:00) 30.6 9.44 (23:50) 6.11 (23:00) 0 0 0 0 0
03-09-2019 36.8 (17:10) 21.7 (00:00) 29.3 7.78 (05:00) 5.28 (05:00) 0 0 0 0 0
02-09-2019 37.6 (15:40) 20.8 (00:00) 29.2 10.28 (18:00) 7.5 (18:20) 0 0 0 0 0
01-09-2019 37.9 (17:20) 20.2 (00:00) 29.1 10.28 (19:30) 6.67 (20:00) 0 0 0 0 0
31-08-2019 37.9 (17:30) 20.1 (00:00) 29 11.94 (00:40) 6.39 (22:50) 0 0 0 0 0
30-08-2019 37.7 (18:20) 19.1 (00:00) 28.4 7.5 (15:20) 5 (18:40) 0 0 0 0 0
29-08-2019 36.3 (17:40) 22.6 (00:00) 29.4 9.17 (15:20) 6.11 (21:40) 0 0 0 0 0
28-08-2019 35.5 (16:40) 18.3 (00:00) 26.9 7.22 (23:30) 4.72 (22:50) 0 0 0 0 0
27-08-2019 32.5 (19:10) 18.1 (00:00) 25.3 10.28 (22:30) 6.67 (22:40) 0 0 0 0 0
26-08-2019 32.7 (16:20) 21.2 (00:00) 27 10.56 (01:20) 6.94 (01:40) 0 0 0 0 0
25-08-2019 35.1 (16:50) 19.1 (00:00) 27.1 11.39 (20:50) 6.94 (21:00) 0 0 0 0 0
24-08-2019 36.4 (16:50) 19.9 (00:00) 28.2 10.83 (22:30) 6.94 (22:30) 0 0 0 0 0
23-08-2019 36.2 (16:40) 20.6 (00:00) 28.4 10.56 (20:10) 6.94 (20:00) 0 0 0 0 0

Gráficas

Temp. máximas Temp. mínimas Temp. medias Precipitaciones Rachas de viento máximas Velocidades máximas media en intervalos de 10 minutos

Datos horarios

Fecha y hora oficial Temperatura (ºC) Velocidad del viento (km/h) Dirección del viento Racha (km/h) Dirección de racha Precipitación (mm) Presión (hPa) Tendencia (hPa) Humedad (%)
2019-09-21 23:00:00 20.6 7 Oeste 18 Sudoeste 0 999.9 1.5 77
2019-09-21 22:00:00 20.7 9 Sudoeste 17 Oeste 0.1 999.5 1 75
2019-09-21 21:00:00 21.4 10 Oeste 21 Sudoeste 0.2 999 0.5 73
2019-09-21 20:00:00 24.1 13 Sudoeste 26 Oeste 0 998.4 -0.1 52
2019-09-21 19:00:00 25.2 13 Oeste 24 Oeste 0 998.5 -0.2 46
2019-09-21 18:00:00 25.3 15 Oeste 27 Oeste 0 998.5 -0.3 44
2019-09-21 17:00:00 26.1 13 Oeste 26 Oeste 0 998.5 -1.3 44
2019-09-21 16:00:00 25.7 13 Oeste 24 Oeste 0 998.7 -1.4 46
2019-09-21 15:00:00 25.2 16 Sudoeste 23 Sudoeste 0 998.8 -1.4 52
2019-09-21 14:00:00 24.1 6 Oeste 18 Oeste 0 999.8 -0.3 61
2019-09-21 13:00:00 23 6 Oeste 16 Oeste 0 1000.1 0.5 67
2019-09-21 12:00:00 22 6 Sudoeste 13 Sudoeste 0 1000.2 1.1 72
2019-09-21 11:00:00 21.4 5 Sudoeste 10 Sudoeste 0 1000.1 1 73
2019-09-21 10:00:00 20.5 5 Sudeste 9 Sudeste 0 999.6 0.8 76
2019-09-21 09:00:00 19.9 6 Sudeste 9 Sudeste 0 999.1 0.3 77
2019-09-21 08:00:00 19.7 4 Sudeste 9 Sudeste 0 999.1 0.1 77
2019-09-21 07:00:00 19.7 6 Sudeste 12 Sudoeste 0 998.8 -0.2 76
2019-09-21 06:00:00 20.2 5 Oeste 12 Oeste 0 998.8 -0.5 75
2019-09-21 05:00:00 19.8 0 Calma 13 Oeste 0 999 -0.4 74
2019-09-21 04:00:00 19.6 8 Oeste 17 Oeste 0 999 -0.8 74
2019-09-21 03:00:00 19.9 10 Sudoeste 17 Sudoeste 0 999.3 -0.3 71
2019-09-21 02:00:00 21 9 Oeste 26 Oeste 0 999.4 0 62
2019-09-21 01:00:00 22 17 Oeste 25 Oeste 0 999.8 0.7 59
2019-09-21 00:00:00 22.6 8 Sudoeste 14 Sudoeste 0 999.6 1 59
2019-09-20 23:00:00 23.6 7 Sudoeste 13 Sudoeste 0 999.4 1.2 57
2019-09-20 22:00:00 24.1 9 Sudoeste 13 Sudoeste 0 999.1 0.8 53
2019-09-20 21:00:00 24.9 9 Oeste 23 Noroeste 0 998.6 0.3 51
2019-09-20 20:00:00 25.4 16 Noroeste 22 Noroeste 0 998.2 -0.4 49
2019-09-20 19:00:00 27 11 Oeste 21 Oeste 0 998.3 -0.2 46
2019-09-20 18:00:00 27.4 6 Oeste 20 Sudoeste 0 998.3 -0.4 45
2019-09-20 17:00:00 27.2 8 Oeste 22 Sudoeste 0 998.6 -0.6 46
2019-09-20 16:00:00 27.5 9 Sudoeste 21 Sudoeste 0 998.5 -1.5 48
2019-09-20 15:00:00 27.4 6 Sudoeste 17 Sudoeste 0 998.7 -1.9 49
2019-09-20 14:00:00 26.9 2 Nordeste 12 Sur 0 999.2 -1.6 52
2019-09-20 13:00:00 25.8 2 Oeste 9 Sudeste 0 1000 -0.6 54
2019-09-20 12:00:00 23.8 3 Nordeste 9 Este 0 1000.6 0.6 57
2019-09-20 11:00:00 21 4 Sudeste 8 Sur 0 1000.8 1.3 64
2019-09-20 10:00:00 19.5 6 Sudoeste 9 Sudoeste 0 1000.6 1.1 65
2019-09-20 09:00:00 18.3 0 Calma 4 Sudoeste 0 1000 0.2 65
2019-09-20 08:00:00 17.4 0 Calma 5 Sudeste 0 999.5 -0.3 69
2019-09-20 07:00:00 17.6 2 Sudeste 6 Sur 0 999.5 -0.4 66
2019-09-20 06:00:00 18.1 3 Norte 8 Sudoeste 0 999.8 -0.2 68
2019-09-20 05:00:00 18.4 4 Sudeste 6 Sudeste 0 999.8 -1 61
2019-09-20 04:00:00 19.2 0 Calma 4 Norte 0 999.9 -0.7 58
2019-09-20 03:00:00 20.5 0 Calma 6 Sudeste 0 1000 -0.3 55
2019-09-20 02:00:00 21.2 4 Sudoeste 8 Sudoeste 0 1000.8 0.7 52
2019-09-20 01:00:00 22.2 4 Sudoeste 22 Sudoeste 0 1000.6 0.8 46
2019-09-20 00:00:00 23.1 15 Sudoeste 26 Sudoeste 0 1000.3 1.1 43
2019-09-19 23:00:00 24.1 14 Sudoeste 20 Sudoeste 0 1000.1 1.4 41
2019-09-19 22:00:00 25 8 Oeste 13 Oeste 0 999.8 1.1 35
2019-09-19 21:00:00 26.5 10 Oeste 17 Oeste 0 999.2 0.6 33
2019-09-19 20:00:00 28.8 10 Oeste 19 Oeste 0 998.7 -0.2 31
2019-09-19 19:00:00 30.3 11 Oeste 29 Oeste 0 998.7 -0.7 31
2019-09-19 18:00:00 31.2 7 Sudoeste 19 Sudoeste 0 998.6 -1.9 31
2019-09-19 17:00:00 31.4 10 Sudoeste 22 Oeste 0 998.9 -2.1 32
2019-09-19 16:00:00 30.4 5 Noroeste 17 Sur 0 999.4 -2.3 33
2019-09-19 15:00:00 29.2 0 Calma 15 Norte 0 1000.5 -1.6 39
2019-09-19 14:00:00 27.5 4 Oeste 12 Oeste 0 1001 -1.3 42
2019-09-19 13:00:00 25.8 3 Noroeste 10 Nordeste 0 1001.7 -0.7 49
2019-09-19 12:00:00 23.7 3 Norte 10 Sudeste 0 1002.1 0.1 59
2019-09-19 11:00:00 21.8 2 Este 7 Este 0 1002.3 0.4 67
2019-09-19 10:00:00 19.1 4 Sudeste 7 Sudeste 0 1002.4 0.8 77
2019-09-19 09:00:00 16.4 3 Sur 5 Sur 0 1002 0.5 85
2019-09-19 08:00:00 15.3 3 Sur 6 Sur 0 1001.9 0.5 85
2019-09-19 07:00:00 15.6 0 Calma 3 Sudeste 0 1001.6 0 84
2019-09-19 06:00:00 16.1 0 Calma 5 Este 0 1001.5 -0.5 81
2019-09-19 05:00:00 16.6 0 Calma 8 Sudoeste 0 1001.4 -0.3 81
2019-09-19 04:00:00 17.2 0 Calma 8 Sur 0 1001.6 -0.1 75
2019-09-19 03:00:00 18.2 5 Sur 10 Sudoeste 0 1002 0.4 71
2019-09-19 02:00:00 19.2 5 Sudoeste 20 Sudoeste 0 1001.7 0.6 69
2019-09-19 01:00:00 19.9 10 Oeste 31 Oeste 0 1001.7 1.1 66
2019-09-19 00:00:00 20.7 21 Sudoeste 32 Oeste 0 1001.6 1.4 60
2019-09-18 23:00:00 22.3 21 Oeste 33 Oeste 0 1001.1 1.4 51
2019-09-18 22:00:00 24.5 19 Oeste 29 Oeste 0 1000.6 1 40
2019-09-18 21:00:00 25.5 9 Oeste 13 Oeste 0 1000.2 0.7 37
2019-09-18 20:00:00 28.1 7 Oeste 16 Noroeste 0 999.7 -0.2 33
2019-09-18 19:00:00 29.8 9 Oeste 19 Sudoeste 0 999.6 -0.8 32
2019-09-18 18:00:00 29.9 4 Oeste 22 Sudoeste 0 999.5 -1.4 35
2019-09-18 17:00:00 30 9 Oeste 36 Oeste 0 999.9 -1.7 36
2019-09-18 16:00:00 29.4 5 Sur 16 Sur 0 1000.4 -1.6 40
2019-09-18 15:00:00 28.2 5 Sudoeste 13 Sudoeste 0 1000.9 -1.1 44
2019-09-18 14:00:00 27.1 6 Sur 14 Sudoeste 0 1001.6 -0.6 50
2019-09-18 13:00:00 26.2 2 Noroeste 13 Sudoeste 0 1002 0.3 57
2019-09-18 12:00:00 24.9 6 Oeste 14 Noroeste 0 1002 0.7 60
2019-09-18 11:00:00 23.1 3 Sur 8 Nordeste 0 1002.2 1.4 69
2019-09-18 10:00:00 20.9 0 Calma -- -- 0 1001.7 1.5 81
2019-09-18 09:00:00 17.9 0 Calma -- -- 0 1001.3 1.1 88
2019-09-18 08:00:00 17 0 Calma -- -- 0 1000.8 0.6 87
2019-09-18 07:00:00 17.6 0 Calma 5 Sudeste 0 1000.2 -0.2 84
2019-09-18 06:00:00 18.3 5 Sudeste 10 Sudeste 0 1000.2 -0.5 82
2019-09-18 05:00:00 19.1 0 Calma 16 Sudoeste 0 1000.2 -0.3 80
2019-09-18 04:00:00 19.5 13 Sudoeste 15 Sudoeste 0 1000.4 0 79
2019-09-18 03:00:00 20 5 Sudoeste 10 Sur 0 1000.7 0.5 74
2019-09-18 02:00:00 21.5 10 Sudoeste 28 Sudoeste 0 1000.5 1 68
2019-09-18 01:00:00 22 19 Sudoeste 31 Sudoeste 0 1000.4 1.4 67
2019-09-18 00:00:00 22.8 18 Sudoeste 37 Oeste 0 1000.2 1.9 65
2019-09-17 23:00:00 24.3 20 Oeste 35 Oeste 0 999.5 1.1 56
2019-09-17 22:00:00 25.4 12 Sudoeste 20 Sur 0 999 0.6 43
2019-09-17 21:00:00 26.4 7 Sur 15 Sur 0 998.3 -0.4 41
2019-09-15 18:00:00 29.1 5 Sur 28 Sudoeste 0 1001.5 -1.3 42
2019-09-15 17:00:00 28.9 2 Noroeste 13 Sudoeste 0 1001.8 -2 45
2019-09-15 16:00:00 28.7 2 Sudeste 10 Sur 0 1002.3 -1.8 46
2019-09-15 15:00:00 27.2 2 Sur 11 Este 0 1002.8 -1.3 56
2019-09-15 14:00:00 25.2 5 Este 13 Sudeste 0 1003.8 0.1 66
2019-09-15 13:00:00 23.6 5 Sudeste 12 Sudeste 0 1004.1 0.4 76
2019-09-15 12:00:00 23 4 Sudeste 8 Sudeste 0 1004.1 1 78
2019-09-15 11:00:00 22.2 0 Calma 6 Este 0 1003.7 0.8 81
2019-09-15 10:00:00 21.4 0 Calma 6 Noroeste 0 1003.7 0.9 90
2019-09-15 09:00:00 19.3 3 Noroeste 5 Noroeste 0 1003.1 0.6 93
2019-09-15 08:00:00 19.2 0 Calma 10 Noroeste 0 1002.9 0.3 93
2019-09-15 07:00:00 19.4 2 Oeste 8 Noroeste 0 1002.8 0.1 93
2019-09-15 06:00:00 19 0 Calma 5 Norte 0 1002.5 -0.5 93
2019-09-15 05:00:00 18.9 4 Sudeste 8 Sudeste 0 1002.6 -0.5 92
2019-09-15 04:00:00 19.2 3 Sudoeste 7 Este 0 1002.7 -0.5 91
2019-09-15 03:00:00 19.6 4 Sudoeste 12 Sudoeste 0 1003 -0.5 90
2019-09-15 02:00:00 20 9 Sudoeste 13 Sur 0 1003.1 -0.4 90
2019-09-15 01:00:00 19.7 5 Sur 9 Sudeste 0 1003.2 0 90
2019-09-15 00:00:00 19.7 0 Calma 6 Sur 0 1003.5 0.8 90
2019-09-14 23:00:00 20.1 5 Sur 10 Sur 0 1003.5 1.4 90
2019-09-14 22:00:00 21.2 0 Calma 6 Sudoeste 0.3 1003.2 1 87
2019-09-14 21:00:00 22.1 7 Noroeste 22 Noroeste 1.1 1002.7 0.5 79
2019-09-14 20:00:00 23.6 4 Norte 11 Nordeste 0 1002.1 -0.4 67
2019-09-14 19:00:00 23.9 5 Este 19 Este 0 1002.2 -0.7 66
2019-09-14 18:00:00 24.8 13 Este 21 Este 0 1002.2 -1.8 64
2019-09-14 17:00:00 23.7 16 Este 22 Este 0 1002.5 -2.4 69
2019-09-14 16:00:00 23.5 14 Nordeste 24 Nordeste 0 1002.9 -2.4 73
2019-09-14 15:00:00 21.3 12 Nordeste 19 Este 0.3 1004 -1.3 85
2019-09-14 14:00:00 19.6 10 Este 17 Este 0.6 1004.9 -0.5 85
2019-09-14 13:00:00 19.7 10 Este 19 Este 0.8 1005.3 0.2 87
2019-09-14 12:00:00 18.6 10 Este 17 Este 0 1005.3 0.6 88
2019-09-14 11:00:00 18.7 12 Este 17 Este 0.1 1005.4 0.9 93
2019-09-14 10:00:00 17.8 6 Sur 12 Sudeste 1.4 1005.1 1.6 95
2019-09-14 09:00:00 17.3 6 Sudeste 12 Sudeste 1.4 1004.7 1.1 96
2019-09-14 08:00:00 16.8 12 Sur 15 Sudeste 0.5 1004.5 1.3 96
2019-09-14 07:00:00 16.6 2 Noroeste 12 Sur 0 1003.5 -0.4 95
2019-09-14 06:00:00 15.8 12 Sur 21 Sur 0 1003.6 -0.9 95
2019-09-14 05:00:00 15.4 0 Calma -- -- 0 1003.2 -1.3 96
2019-09-14 04:00:00 15.8 0 Calma 8 Sur 0 1003.9 -1.1 94
2019-09-14 03:00:00 16.2 5 Sur 8 Sur 0 1004.5 -0.7 90
2019-09-14 02:00:00 17.2 0 Calma 4 Noroeste 0 1004.5 -0.8 90
2019-09-14 01:00:00 16.9 2 Noroeste 8 Este 0 1005 0 91
2019-09-14 00:00:00 16.9 3 Oeste 5 Oeste 0 1005.2 0.6 91
2019-09-13 23:00:00 17.4 0 Calma 10 Noroeste 0 1005.3 2.5 89
2019-09-13 22:00:00 18.1 0 Calma 15 Sur 0 1005 0.5 85
2019-09-13 21:00:00 19.3 11 Sur 19 Sudoeste 0.1 1004.6 2.3 76
2019-09-13 20:00:00 19.3 5 Sur 36 Sudeste 3.1 1002.8 0.4 75
2019-09-13 19:00:00 21.8 18 Sudeste 63 Sudeste 0 1004.5 1.5 63
2019-09-13 18:00:00 28.8 10 Este 27 Este 0 1002.3 -1.5 47
2019-09-13 17:00:00 28.2 12 Nordeste 33 Nordeste 0 1002.4 -2 46
2019-09-13 16:00:00 27.2 19 Este 30 Este 0 1003 -2.3 51
2019-09-13 15:00:00 26.8 16 Nordeste 35 Nordeste 0 1003.8 -2 53
2019-09-13 14:00:00 25.6 23 Este 36 Este 0 1004.4 -1.1 58
2019-09-13 13:00:00 22.5 21 Nordeste 38 Nordeste 0 1005.3 0.3 66
2019-09-13 12:00:00 23.2 23 Este 47 Este 0 1005.8 2.2 66
2019-09-13 11:00:00 21.4 28 Este 39 Este 0 1005.5 0.2 68
2019-09-13 10:00:00 20.5 12 Nordeste 26 Este 0 1005 0.2 74
2019-09-13 09:00:00 18.5 12 Norte 23 Este 0 1003.6 -0.9 77
2019-09-13 08:00:00 18.2 17 Este 35 Este 0 1005.3 0.4 76
2019-09-13 07:00:00 18.7 15 Nordeste 24 Nordeste 0 1004.8 -0.4 75
2019-09-13 06:00:00 19 8 Nordeste 18 Este 0 1004.5 -1.3 75
2019-09-13 05:00:00 19.2 7 Nordeste 25 Este 0 1004.9 -1.7 75
2019-09-13 04:00:00 19.8 22 Este 33 Este 0 1005.2 -2.6 74
2019-09-13 03:00:00 19.3 17 Nordeste 31 Nordeste 0 1005.8 -0.7 83
2019-09-13 02:00:00 19.1 15 Este 33 Este 0 1006.6 -0.9 83
2019-09-13 01:00:00 19.2 24 Este 38 Nordeste 0 1007.8 0.6 83
2019-09-13 00:00:00 19.8 24 Nordeste 51 Este 0 1006.5 0.3 79
2019-09-12 23:00:00 20.3 26 Este 46 Este 0 1007.5 2 75
2019-09-12 22:00:00 22.6 35 Este 53 Nordeste 0 1007.2 1.5 61
2019-09-12 21:00:00 24.2 27 Nordeste 41 Nordeste 0 1006.2 0.6 52
2019-09-12 20:00:00 25.5 23 Nordeste 40 Este 0 1005.5 0 48
2019-09-12 19:00:00 26.4 22 Nordeste 41 Este 0 1005.7 -0.1 46
2019-09-12 18:00:00 27.6 26 Este 37 Nordeste 0 1005.6 -0.7 45
2019-09-12 17:00:00 27.2 23 Este 41 Este 0 1005.5 -1.1 46
2019-09-12 16:00:00 27.6 26 Este 44 Este 0 1005.8 -0.9 46
2019-09-12 15:00:00 26.5 25 Este 41 Este 0 1006.3 -0.9 47
2019-09-12 14:00:00 26.7 23 Este 49 Nordeste 0 1006.6 -0.2 47
2019-09-12 13:00:00 26 24 Este 40 Este 0 1006.7 0.4 50
2019-09-12 12:00:00 24.4 23 Este 40 Este 0.3 1007.2 2 54
2019-09-12 11:00:00 23.2 26 Este 39 Este 0 1006.8 1.9 55
2019-09-12 10:00:00 20.3 13 Este 18 Este 0 1006.3 0.7 57
2019-09-12 09:00:00 18.4 3 Nordeste 11 Este 0 1005.2 -0.3 58
2019-09-12 08:00:00 18.6 3 Nordeste 12 Nordeste 0 1004.9 -0.8 58
2019-09-12 07:00:00 18.6 8 Nordeste 22 Nordeste 0 1005.6 -0.7 57
2019-09-12 06:00:00 18.8 15 Nordeste 31 Nordeste 0 1005.5 -0.6 57
2019-09-12 05:00:00 19 14 Este 32 Este 0 1005.7 -0.3 56
2019-09-12 04:00:00 19.7 16 Nordeste 31 Este 0 1006.3 0.9 54
2019-09-12 03:00:00 20.2 19 Este 37 Este 0 1006.1 0.8 52
2019-09-12 02:00:00 21.1 24 Este 43 Nordeste 0 1006 1 49
2019-09-12 01:00:00 22.2 22 Nordeste 38 Nordeste 0 1005.4 1.2 45
2019-09-12 00:00:00 22.8 22 Este 35 Nordeste 0 1005.3 2.2 44
2019-09-11 23:00:00 24.1 15 Este 29 Este 0 1005 2.7 42
2019-09-11 22:00:00 24.9 12 Este 20 Este 0 1004.2 2.3 41
2019-09-11 21:00:00 25.9 8 Nordeste 18 Este 0 1003.1 1.2 39
2019-09-11 20:00:00 26.9 17 Este 23 Este 0 1002.3 0.1 38
2019-09-11 19:00:00 27.9 13 Nordeste 29 Este 0 1001.9 -0.6 38
2019-09-11 18:00:00 28.4 14 Nordeste 30 Nordeste 0 1001.9 -1.2 38
2019-09-11 17:00:00 28.2 14 Nordeste 33 Este 0 1002.2 -1.5 38
2019-09-11 16:00:00 28 14 Nordeste 30 Este 0 1002.5 -2 38
2019-09-11 15:00:00 27.1 11 Nordeste 37 Nordeste 0 1003.1 -1.7 40
2019-09-11 14:00:00 25.7 9 Nordeste 28 Nordeste 0 1003.7 -1 42
2019-09-11 13:00:00 24 11 Nordeste 31 Este 0 1004.5 -0.2 44
2019-09-11 12:00:00 22.9 14 Nordeste 28 Este 0 1004.8 0.5 45
2019-09-11 11:00:00 21.8 14 Este 26 Este 0 1004.7 1.3 47
2019-09-11 10:00:00 19.7 4 Sudeste 8 Sudeste 0 1004.7 1.8 49
2019-09-11 09:00:00 17 4 Sur 12 Norte 0 1004.3 1.6 51
2019-09-11 08:00:00 16.7 4 Nordeste 13 Norte 0 1003.4 1 52
2019-09-11 07:00:00 16.4 7 Norte 17 Norte 0 1002.9 0.5 52
2019-09-11 06:00:00 15.3 3 Norte 7 Norte 0 1002.7 0 50
2019-09-11 05:00:00 15.7 2 Nordeste 14 Nordeste 0 1002.4 0.3 46
2019-09-11 04:00:00 16.8 5 Noroeste 9 Norte 0 1002.4 0.6 44
2019-09-11 03:00:00 17.5 0 Calma 20 Sudeste 0 1002.7 1.3 42
2019-09-11 02:00:00 17.1 0 Calma 11 Norte 0 1002.1 1.3 41
2019-09-11 01:00:00 19.3 5 Norte 19 Norte 0 1001.8 1.7 40
2019-09-11 00:00:00 21 9 Norte 25 Noroeste 0 1001.4 2 38
2019-09-10 23:00:00 21.4 5 Norte 17 Noroeste 0 1000.8 1.8 38
2019-09-10 22:00:00 22.4 13 Noroeste 18 Noroeste 0 1000.1 1.5 36
2019-09-10 21:00:00 23.7 10 Noroeste 17 Norte 0 999.4 0.8 35
2019-09-10 20:00:00 26.5 13 Norte 27 Noroeste 0 999 0.2 35
2019-09-10 19:00:00 27.6 10 Norte 32 Norte 0 998.6 -0.3 36
2019-09-10 18:00:00 27.8 15 Norte 33 Norte 0 998.6 -0.8 36
2019-09-10 17:00:00 28 19 Noroeste 38 Noroeste 0 998.8 -1.2 37
2019-09-10 16:00:00 27 17 Norte 38 Norte 0 998.9 -1.9 40
2019-09-10 15:00:00 26.5 15 Oeste 37 Norte 0 999.4 -2.2 45
2019-09-10 14:00:00 25.9 15 Noroeste 36 Norte 0 1000 -1.7 46
2019-09-10 13:00:00 24.1 15 Noroeste 30 Noroeste 0 1000.8 -0.5 53
2019-09-10 12:00:00 22.7 14 Noroeste 27 Noroeste 0 1001.6 1.1 55
2019-09-10 11:00:00 20.8 10 Oeste 21 Oeste 0 1001.7 1.4 57
2019-09-10 10:00:00 19.2 13 Oeste 26 Oeste 0 1001.3 1.2 60
2019-09-10 09:00:00 17.4 14 Oeste 27 Oeste 0 1000.5 0.7 63
2019-09-10 08:00:00 16.7 17 Oeste 28 Oeste 0 1000.3 0.6 63
2019-09-10 07:00:00 17.6 14 Oeste 26 Oeste 0 1000.1 0 61
2019-09-10 06:00:00 18.7 19 Oeste 30 Oeste 0 999.8 -0.7 60
2019-09-10 05:00:00 19.8 15 Oeste 30 Oeste 0 999.7 -1.1 60
2019-09-10 04:00:00 21.1 18 Oeste 30 Oeste 0 1000.1 -0.9 61
2019-09-10 03:00:00 22.1 22 Sudoeste 32 Sudoeste 0 1000.5 -0.7 62
2019-09-10 02:00:00 23.1 25 Sudoeste 32 Sudoeste 0 1000.8 -0.3 59
2019-09-10 01:00:00 23.6 25 Sudoeste 36 Sudoeste 0 1001 0.4 58
2019-09-10 00:00:00 24.1 26 Sudoeste 39 Sudoeste 0 1001.2 1.2 58
2019-09-09 23:00:00 24.7 29 Sudoeste 41 Sudoeste 0 1001.1 1.7 55
2019-09-09 22:00:00 25.9 30 Sudoeste 48 Sudoeste 0 1000.6 1.2 52
2019-09-09 21:00:00 28.1 21 Sudoeste 42 Oeste 0 1000 0.6 44
2019-09-09 20:00:00 30.8 22 Oeste 39 Sudoeste 0 999.4 -0.6 39
2019-09-09 19:00:00 32.6 15 Oeste 36 Oeste 0 999.4 -1.3 36
2019-09-09 18:00:00 32.8 17 Oeste 38 Oeste 0 999.4 -2.1 37
2019-09-09 17:00:00 32.8 16 Oeste 30 Sudoeste 0 1000 -2.5 38
2019-09-09 16:00:00 31.8 7 Noroeste 24 Noroeste 0 1000.7 -2.6 44
2019-09-09 15:00:00 30.8 8 Sudoeste 20 Sudoeste 0 1001.5 -2.1 49
2019-09-09 14:00:00 29.3 4 Sudoeste 17 Sudoeste 0 1002.5 -1 55
2019-09-09 13:00:00 28 8 Sur 17 Sur 0 1003.3 -0.1 60
2019-09-09 12:00:00 26.4 3 Sudeste 12 Sur 0 1003.6 0.4 68
2019-09-09 11:00:00 24.8 2 Sudeste 9 Sudeste 0 1003.5 0.7 72
2019-09-09 10:00:00 22.8 3 Sudeste 8 Sudeste 0 1003.4 1.1 77
2019-09-09 09:00:00 19.6 0 Calma -- -- 0 1003.2 1.1 83
2019-09-09 08:00:00 19.3 0 Calma 5 Sudeste 0 1002.8 0.4 82
2019-09-09 07:00:00 20.3 0 Calma 12 Sudoeste 0 1002.3 -0.3 79
2019-09-09 06:00:00 20.7 8 Sudoeste 14 Sudoeste 0 1002.1 -0.9 76
2019-09-09 05:00:00 21.2 12 Sudoeste 22 Sudoeste 0 1002.4 -0.6 75
2019-09-09 04:00:00 21.4 15 Sudoeste 21 Sudoeste 0 1002.6 -0.2 71
2019-09-09 03:00:00 20.9 3 Sur 9 Sur 0 1003 0 69
2019-09-09 02:00:00 21 5 Sur 7 Sudeste 0 1003 -0.1 68
2019-09-09 01:00:00 21.3 0 Calma 5 Sudeste 0 1002.8 0.4 68
2019-09-09 00:00:00 21.6 4 Sudeste 9 Sudeste 0 1003 1.2 67
2019-09-08 23:00:00 22 5 Este 22 Sur 0 1003.1 2 65
2019-09-08 22:00:00 23.2 12 Sur 26 Sur 0 1002.4 1.5 61
2019-09-08 21:00:00 23.2 22 Sudoeste 30 Sudoeste 0 1001.8 1.6 61
2019-09-08 20:00:00 23.9 23 Sudoeste 37 Sur 0 1001.1 1 59
2019-09-08 19:00:00 26.4 20 Sudeste 36 Este 0 1000.9 0.7 52
2019-09-08 18:00:00 30.2 11 Este 23 Nordeste 0 1000.2 -0.4 46
2019-09-08 17:00:00 30.2 10 Nordeste 25 Este 0 1000.1 -1 46
2019-09-08 16:00:00 30.7 13 Este 27 Este 0 1000.2 -1 47
2019-09-08 15:00:00 30.6 17 Este 27 Este 0 1000.6 -0.9 48
2019-09-08 14:00:00 29.6 4 Sur 15 Este 0 1001.1 -0.5 50
2019-09-08 13:00:00 28.6 2 Nordeste 18 Este 0 1001.2 0.2 53
2019-09-08 12:00:00 26.8 11 Este 18 Este 0 1001.5 0.8 58
2019-09-08 11:00:00 25.6 10 Este 16 Este 0 1001.6 0.7 64
2019-09-08 10:00:00 23.2 0 Calma -- -- 0 1001 0.3 70
2019-09-08 09:00:00 22 0 Calma 5 Este 0 1000.7 -0.4 71
2019-09-08 08:00:00 22.1 0 Calma 11 Sudoeste 0 1000.9 0 73
2019-09-08 07:00:00 22.4 6 Sudeste 17 Este 0 1000.7 -0.2 71
2019-09-08 06:00:00 22.6 5 Este 16 Sur 0 1001.1 -0.3 70
2019-09-08 05:00:00 23.4 10 Sur 18 Sur 0 1000.9 -0.2 68
2019-09-08 04:00:00 23.1 6 Sur 12 Sur 0 1000.9 -0.1 66
2019-09-08 03:00:00 23.3 7 Sur 27 Sudoeste 0 1001.4 0.7 67
2019-09-08 02:00:00 24.2 15 Sur 31 Sur 0 1001.1 0.5 64
2019-09-08 01:00:00 24.6 17 Sur 34 Sur 0 1001 1.7 63
2019-09-08 00:00:00 25.1 22 Sur 37 Sur 0 1000.7 2.2 62
2019-09-07 23:00:00 25.5 24 Sur 41 Sudoeste 0 1000.6 2 58
2019-09-07 22:00:00 26.7 20 Sudoeste 32 Sur 0 999.3 1.1 47
2019-09-07 21:00:00 27.7 13 Sur 29 Sudoeste 0 998.5 0.1 43
2019-09-07 20:00:00 28.9 19 Sur 30 Sur 0 998.6 0 42
2019-09-07 19:00:00 30.5 20 Sur 31 Sur 0 998.2 -0.9 41
2019-09-07 18:00:00 31.9 23 Sur 33 Sur 0 998.4 -1.4 38
2019-09-07 17:00:00 33 19 Sur 34 Sur 0 998.6 -1.6 38
2019-09-07 16:00:00 33.4 21 Sur 32 Sur 0 999.1 -1.6 39
2019-09-07 15:00:00 33.1 20 Sudeste 33 Sudeste 0 999.8 -1.3 41
2019-09-07 14:00:00 31.8 17 Sudeste 30 Sur 0 1000.2 -1.2 46
2019-09-07 13:00:00 30.7 11 Sur 22 Sur 0 1000.7 -0.6 51
2019-09-07 12:00:00 28.9 4 Sudeste 14 Nordeste 0 1001.1 0.2 56
2019-09-07 11:00:00 26.8 9 Sudeste 19 Sudeste 0 1001.4 0.8 61
2019-09-07 10:00:00 25.2 4 Este 9 Sur 0 1001.3 0.9 65
2019-09-07 09:00:00 22.2 4 Oeste 13 Sur 0 1000.9 0.8 68
2019-09-07 08:00:00 21.7 9 Sur 15 Sur 0 1000.6 0 71
2019-09-07 07:00:00 21.7 9 Sudoeste 13 Sur 0 1000.4 -0.1 68
2019-09-07 06:00:00 23.1 7 Sur 19 Sur 0 1000.1 -- 66
2019-09-07 05:00:00 23.7 13 Sur 26 Sur 0 1000.6 -0.1 64
2019-09-07 04:00:00 24 18 Sur 27 Sudoeste 0 1000.5 0.5 63
2019-09-07 03:00:00 -- -- -- -- -- -- -- -- --
2019-09-07 02:00:00 25.3 16 Sur 31 Sur 0 1000.7 1.4 48
2019-09-07 01:00:00 25.8 16 Sudoeste 24 Sur 0 1000 1.2 43
2019-09-07 00:00:00 26 10 Sudoeste 22 Sur 0 999.7 1.2 41
2019-09-06 23:00:00 26.8 15 Sudoeste 24 Sudoeste 0 999.3 0.8 41
2019-09-06 22:00:00 27.6 16 Sur 27 Sur 0 998.8 0.4 39
2019-09-06 21:00:00 28.2 16 Sudoeste 26 Sudoeste 0 998.5 0.6 38
2019-09-06 20:00:00 29.7 20 Sur 28 Sur 0 998.5 -0.1 39
2019-09-06 19:00:00 31.1 17 Sur 31 Sur 0 998.4 -1 38
2019-09-06 18:00:00 33.6 12 Sur 23 Sudeste 0 997.9 -2.1 38
2019-09-06 17:00:00 33.8 14 Sudeste 27 Sur 0 998.6 -2.1 40
2019-09-06 16:00:00 33.7 16 Sur 27 Sur 0 999.4 -1.6 42
2019-09-06 15:00:00 33.1 12 Sur 26 Sudeste 0 1000 -1.3 46
2019-09-06 14:00:00 32.1 11 Sur 28 Sudeste 0 1000.7 -0.8 50
2019-09-06 13:00:00 30.8 8 Sur 26 Sudeste 0 1001 -0.3 55
2019-09-06 12:00:00 29.4 15 Este 30 Sudeste 0 1001.3 0.2 59
2019-09-06 11:00:00 27.7 13 Sudeste 23 Sudeste 0 1001.5 0.4 64
2019-09-06 10:00:00 25.5 7 Sudeste 12 Este 0 1001.3 0.7 70
2019-09-06 09:00:00 22.7 4 Sudeste 7 Sudeste 0 1001.1 0.6 70
2019-09-06 08:00:00 21.3 0 Calma 5 Norte 0 1001.1 0.7 70
2019-09-06 07:00:00 22.2 0 Calma 4 Sudoeste 0 1000.6 0.1 68
2019-09-06 06:00:00 22.6 2 Oeste 9 Sur 0 1000.5 -0.3 66
2019-09-06 05:00:00 24.1 9 Sur 13 Sudoeste 0 1000.4 -0.4 63
2019-09-06 04:00:00 24.1 5 Sudoeste 12 Sudeste 0 1000.5 -0.2 62
2019-09-06 03:00:00 25.1 10 Sur 22 Sur 0 1000.8 0.1 60
2019-09-06 02:00:00 25.6 13 Sur 27 Sudoeste 0 1000.8 0.8 58
2019-09-06 01:00:00 25.8 13 Sudoeste 21 Sur 0 1000.7 1.5 55
2019-09-06 00:00:00 26.8 10 Sur 18 Sur 0 1000.7 2.5 53
2019-09-05 23:00:00 28.1 12 Sudoeste 22 Oeste 0 1000 2.2 49
2019-09-05 22:00:00 29.2 18 Sudoeste 33 Oeste 0 999.2 1.5 48
2019-09-05 21:00:00 30.6 23 Oeste 36 Oeste 0 998.2 0.7 46
2019-09-05 20:00:00 32.9 22 Oeste 36 Oeste 0 997.8 -0.2 41
2019-09-05 19:00:00 35.5 17 Sudoeste 28 Sudoeste 0 997.7 -0.9 35
2019-09-05 18:00:00 36.4 6 Sudoeste 21 Oeste 0 997.5 -2 33
2019-09-05 17:00:00 36.2 8 Noroeste 18 Oeste 0 998 -1.9 35
2019-09-05 16:00:00 35.1 10 Noroeste 19 Sur 0 998.6 -1.9 38
2019-09-05 15:00:00 33.9 3 Sur 18 Sudoeste 0 999.5 -1.3 42
2019-09-05 14:00:00 32.6 7 Sudoeste 19 Oeste 0 999.9 -0.9 47
2019-09-05 13:00:00 30.7 3 Noroeste 15 Oeste 0 1000.5 -0.3 52
2019-09-05 12:00:00 29.3 5 Oeste 16 Oeste 0 1000.8 0.2 55
2019-09-05 11:00:00 27.4 4 Este 10 Nordeste 0 1000.8 0.5 61
2019-09-05 10:00:00 24.8 2 Este 6 Este 0 1000.8 0.9 66
2019-09-05 09:00:00 21.9 0 Calma 5 Sur 0 1000.6 0.9 71
2019-09-05 08:00:00 19.9 0 Calma 4 Sur 0 1000.3 0.8 74
2019-09-05 07:00:00 20.8 2 Sur 4 Sudeste 0 999.9 0.1 71
2019-09-05 06:00:00 21.5 4 Sudeste 8 Sudeste 0 999.7 -0.3 68
2019-09-05 05:00:00 22.3 0 Calma 8 Sur 0 999.5 -1 67
2019-09-05 04:00:00 23.8 5 Sur 18 Sudoeste 0 999.8 -0.9 65
2019-09-05 03:00:00 24.2 16 Sudoeste 26 Sudoeste 0 1000 -0.6 62
2019-09-05 02:00:00 25.1 16 Sudoeste 23 Sudoeste 0 1000.5 0 57
2019-09-05 01:00:00 25.8 18 Sudoeste 37 Sudoeste 0 1000.7 0.5 57
2019-09-05 00:00:00 26.1 19 Oeste 34 Sudoeste 0 1000.6 0.9 55
2019-09-04 23:00:00 27.5 22 Sudoeste 31 Sudoeste 0 1000.5 1 53
2019-09-04 22:00:00 30.5 14 Oeste 27 Sudoeste 0 1000.2 0.6 45
2019-09-04 21:00:00 32.1 9 Oeste 25 Oeste 0 999.7 -0.2 38
2019-09-04 20:00:00 33.9 19 Oeste 31 Oeste 0 999.5 -0.8 36
2019-09-04 19:00:00 35.9 14 Oeste 26 Oeste 0 999.6 -1.4 35
2019-09-04 18:00:00 36.4 14 Sudoeste 28 Sudoeste 0 999.9 -2 37
2019-09-04 17:00:00 36.2 17 Sudoeste 27 Sudoeste 0 1000.3 -2.4 38
2019-09-04 16:00:00 35.5 14 Sudoeste 24 Sudoeste 0 1001 -2.4 40
2019-09-04 15:00:00 34.2 9 Sur 20 Sudoeste 0 1001.9 -2 44
2019-09-04 14:00:00 32.4 8 Sur 15 Sur 0 1002.7 -1.1 48
2019-09-04 13:00:00 29.7 8 Sudeste 18 Sudeste 0 1003.4 -0.2 52
2019-09-04 12:00:00 29 12 Sudeste 17 Sudeste 0 1003.9 0.6 52
2019-09-04 11:00:00 27.8 5 Sudeste 10 Sudeste 0 1003.8 0.5 54
2019-09-04 10:00:00 26.8 5 Este 9 Este 0 1003.6 0.8 55
2019-09-04 09:00:00 25.6 0 Calma 9 Sur 0 1003.3 0.9 55
2019-09-04 08:00:00 25 6 Sudoeste 15 Sur 0 1003.3 0.7 55
2019-09-04 07:00:00 24.6 9 Sudoeste 13 Sur 0 1002.8 -0.2 56
2019-09-04 06:00:00 24.8 8 Sur 11 Sur 0 1002.4 -1 55
2019-09-04 05:00:00 25 7 Sur 12 Sur 0 1002.6 -0.9 55
2019-09-04 04:00:00 26 7 Sur 13 Sur 0 1003 0 52
2019-09-04 03:00:00 26.8 7 Sur 16 Sudoeste 0 1003.4 0.3 49
2019-09-04 02:00:00 27.2 10 Sur 22 Sudoeste 0 1003.5 0.8 47
2019-09-04 01:00:00 27.5 17 Sudoeste 23 Sudoeste 0 1003 0.7 45
2019-09-04 00:00:00 28.4 12 Sur 21 Sudoeste 0 1003.1 1.3 42
2019-09-03 23:00:00 28.7 13 Sur 23 Sudoeste 0 1002.7 1.2 40
2019-09-03 22:00:00 29.7 19 Sur 25 Sudoeste 0 1002.3 1 38
2019-09-03 21:00:00 31.5 15 Sur 27 Sur 0 1001.8 0.5 35
2019-09-03 20:00:00 34.3 15 Sudeste 21 Sur 0 1001.5 0.1 33
2019-09-03 19:00:00 35.7 16 Sur 27 Sur 0 1001.3 -0.8 33
2019-09-03 18:00:00 36.2 14 Sur 26 Sur 0 1001.3 -1.5 34
2019-09-03 17:00:00 36.5 10 Sudeste 27 Sur 0 1001.4 -2.1 35
2019-09-03 16:00:00 36.3 9 Sur 28 Sudeste 0 1002.1 -2.2 36
2019-09-03 15:00:00 36.1 12 Sur 22 Sudeste 0 1002.8 -1.9 36
2019-09-03 14:00:00 34.2 7 Sur 22 Este 0 1003.5 -1.2 40
2019-09-03 13:00:00 32.3 7 Sudeste 24 Sudeste 0 1004.3 0.1 45
2019-09-03 12:00:00 30.4 4 Sudeste 13 Nordeste 0 1004.7 0.6 49
2019-09-03 11:00:00 27.8 4 Nordeste 11 Nordeste 0 1004.7 1.5 56
2019-09-03 10:00:00 26.1 5 Nordeste 9 Norte 0 1004.2 1.3 59
2019-09-03 09:00:00 23.5 0 Calma 5 Nordeste 0 1004.1 1.5 60
2019-09-03 08:00:00 21.9 0 Calma 8 Sudeste 0 1003.2 1 60
2019-09-03 07:00:00 23.1 3 Sur 15 Sur 0 1002.9 0.2 57
2019-09-03 06:00:00 24.5 8 Sur 22 Sur 0 1002.6 -0.2 53
2019-09-03 05:00:00 25.1 19 Sur 28 Sudoeste 0 1002.2 -0.2 51
2019-09-03 04:00:00 23.4 8 Sur 14 Sudoeste 0 1002.7 0.5 51
2019-09-03 03:00:00 24.8 12 Sudoeste 17 Sudoeste 0 1002.8 1.1 49
2019-09-03 02:00:00 25.6 15 Sudoeste 18 Sudoeste 0 1002.4 1.3 47
2019-09-03 01:00:00 26 13 Sudoeste 17 Sudoeste 0 1002.2 2 44
2019-09-03 00:00:00 26.8 10 Sudoeste 23 Sudoeste 0 1001.7 2.3 41
2019-09-02 23:00:00 28 17 Sudoeste 27 Sudoeste 0 1001.1 2.4 40
2019-09-02 22:00:00 29.2 19 Sudoeste 30 Sur 0 1000.2 1.8 38
2019-09-02 21:00:00 30.6 17 Sudoeste 32 Sudoeste 0 999.4 0.9 37
2019-09-02 20:00:00 32.7 18 Sur 34 Sur 0 998.7 0.3 35
2019-09-02 19:00:00 33.9 24 Sur 37 Sur 0 998.4 -0.3 35
2019-09-02 18:00:00 35.9 24 Sur 37 Sudeste 0 998.5 -0.5 33
2019-09-02 17:00:00 37.3 18 Sur 29 Sur 0 998.4 -1 31
2019-09-02 16:00:00 37.3 15 Sur 30 Sur 0 998.7 -1.2 30
2019-09-02 15:00:00 36.7 11 Sudeste 25 Sudeste 0 999 -1.2 33
2019-09-02 14:00:00 35 6 Este 18 Este 0 999.4 -0.8 40
2019-09-02 13:00:00 33.6 5 Sudeste 14 Sur 0 999.9 0 44
2019-09-02 12:00:00 31.8 3 Este 13 Este 0 1000.2 0.5 46
2019-09-02 11:00:00 28.6 5 Este 9 Este 0 1000.2 1 51
2019-09-02 10:00:00 26 4 Este 6 Este 0 999.9 1.3 56
2019-09-02 09:00:00 22.9 0 Calma 5 Oeste 0 999.7 1.2 63
2019-09-02 08:00:00 20.9 0 Calma 4 Sudeste 0 999.2 0.8 64
2019-09-02 07:00:00 21.6 0 Calma 4 Este 0 998.6 0.1 60
2019-09-02 06:00:00 22.4 3 Sur 4 Sudeste 0 998.5 0 57
2019-09-02 05:00:00 23.2 0 Calma 6 Norte 0 998.4 -0.2 55
2019-09-02 04:00:00 24.6 0 Calma 17 Sudoeste 0 998.5 0.2 55
2019-09-02 03:00:00 25.9 12 Sur 20 Sudoeste 0 998.5 0.1 52
2019-09-02 02:00:00 26.4 17 Sudoeste 23 Sudoeste 0 998.6 0.1 52
2019-09-02 01:00:00 26.3 12 Sudoeste 16 Sudoeste 0 998.3 0.9 50
2019-09-02 00:00:00 27.7 10 Sudoeste 15 Sudoeste 0 998.4 1.8 48
2019-09-01 23:00:00 28.8 6 Sudoeste 26 Sudoeste 0 998.5 2.4 46
2019-09-01 22:00:00 30.3 20 Sudoeste 36 Sudoeste 0 997.4 1.6 43
2019-09-01 21:00:00 32.3 18 Oeste 37 Oeste 0 996.6 0.8 38
2019-09-01 20:00:00 35.2 24 Oeste 37 Sudoeste 0 996.1 -0.1 33
2019-09-01 19:00:00 37 11 Noroeste 28 Oeste 0 995.8 -1.1 32
2019-09-01 18:00:00 37.6 7 Oeste 22 Sudoeste 0 995.8 -2 32
2019-09-01 17:00:00 37.6 2 Oeste 16 Oeste 0 996.2 -2.3 33
2019-09-01 16:00:00 36.7 6 Nordeste 19 Nordeste 0 996.9 -2.5 36
2019-09-01 15:00:00 36 0 Calma 14 Este 0 997.8 -2.2 37
2019-09-01 14:00:00 34.8 4 Nordeste 12 Sur 0 998.5 -1.7 39
2019-09-01 13:00:00 32.5 5 Este 12 Este 0 999.4 -0.6 43
2019-09-01 12:00:00 30.7 4 Sudeste 9 Este 0 1000 -0.1 48
2019-09-01 11:00:00 27.8 2 Este 9 Sudeste 0 1000.2 0.4 59
2019-09-01 10:00:00 24.5 5 Sudeste 8 Sudeste 0 1000 0.7 68
2019-09-01 09:00:00 21.5 5 Sudeste 8 Sudeste 0 1000.1 1 73
2019-09-01 08:00:00 20.3 3 Sudeste 5 Sudeste 0 999.8 0.7 72
2019-09-01 07:00:00 21 3 Sur 7 Sudeste 0 999.3 -0.2 71
2019-09-01 06:00:00 22 4 Sudeste 9 Sudoeste 0 999.1 -0.3 67
2019-09-01 05:00:00 22.9 4 Sudoeste 12 Sudoeste 0 999.1 -0.7 65
2019-09-01 04:00:00 23.7 3 Sudeste 13 Sudoeste 0 999.5 0.1 61
2019-09-01 03:00:00 24.7 7 Sudoeste 18 Sudoeste 0 999.4 -0.1 58
2019-09-01 02:00:00 25.4 11 Sudoeste 23 Oeste 0 999.8 1 55
2019-09-01 01:00:00 26.3 16 Sudoeste 27 Sudoeste 0 999.4 1.1 53
2019-09-01 00:00:00 27.2 19 Sudoeste 32 Sudoeste 0 999.5 1.8 51
2019-08-31 23:00:00 29 18 Oeste 39 Oeste 0 998.8 1.4 46
2019-08-31 22:00:00 31.8 15 Oeste 22 Oeste 0 998.3 1 37
2019-08-31 21:00:00 33.5 8 Oeste 15 Sudoeste 0 997.7 0.5 33
2019-08-31 20:00:00 36 9 Sudoeste 22 Oeste 0 997.4 -0.4 32
2019-08-31 19:00:00 36.8 11 Oeste 23 Oeste 0 997.3 -1.4 31
2019-08-31 18:00:00 37.7 7 Sudoeste 24 Sudoeste 0 997.2 -2.5 31
2019-08-31 17:00:00 36.9 10 Sudeste 18 Sur 0 997.8 -2.7 32
2019-08-31 16:00:00 36.8 9 Sur 20 Sudoeste 0 998.7 -2.5 33
2019-08-31 15:00:00 35.9 0 Calma 18 Sudoeste 0 999.7 -1.8 33
2019-08-31 14:00:00 34.4 2 Noroeste 13 Sudeste 0 1000.5 -1.1 36
2019-08-31 13:00:00 33.3 2 Sudeste 15 Este 0 1001.2 -0.2 38
2019-08-31 12:00:00 30.9 7 Este 15 Sudeste 0 1001.5 0.3 44
2019-08-31 11:00:00 28.4 6 Este 14 Sudeste 0 1001.6 0.9 48
2019-08-31 10:00:00 25.6 8 Sudeste 13 Sudeste 0 1001.4 1.1 52
2019-08-31 09:00:00 22.1 0 Calma -- -- 0 1001.2 0.8 55
2019-08-31 08:00:00 20.4 0 Calma 6 Sudeste 0 1000.7 -0.1 54
2019-08-31 07:00:00 21 4 Sudeste 13 Sudoeste 0 1000.3 -1 50
2019-08-31 06:00:00 22.5 0 Calma 10 Sur 0 1000.4 -1 48
2019-08-31 05:00:00 23.5 7 Sur 15 Sudeste 0 1000.8 -1.3 45
2019-08-31 04:00:00 25.1 9 Sur 16 Sudoeste 0 1001.3 -1.4 42
2019-08-31 03:00:00 25.4 6 Sur 19 Sudoeste 0 1001.4 0 41
2019-08-31 02:00:00 26.1 5 Sur 18 Sudoeste 0 1002.1 0.9 41
2019-08-31 01:00:00 27 10 Sudeste 43 Este 0 1002.7 2.1 41
2019-08-31 00:00:00 27.5 5 Sur 15 Sudoeste 0 1001.4 1.5 38
2019-08-30 23:00:00 29 12 Sudoeste 23 Sudoeste 0 1001.2 1.8 38
2019-08-30 22:00:00 30.4 14 Sudoeste 22 Sur 0 1000.6 1.2 35
2019-08-30 21:00:00 32.4 15 Sur 26 Sur 0 999.9 0.4 33
2019-08-30 20:00:00 34.8 16 Sur 26 Sudeste 0 999.4 -0.9 32
2019-08-30 19:00:00 36.6 17 Sur 27 Sur 0 999.4 -1.8 30
2019-08-30 18:00:00 37.4 10 Sudeste 24 Sudeste 0 999.5 -2.5 30
2019-08-30 17:00:00 37.4 9 Sudeste 22 Sudeste 0 1000.3 -2.5 30
2019-08-30 16:00:00 37 14 Sur 27 Sudeste 0 1001.2 -2.4 32
2019-08-30 15:00:00 36.4 12 Sur 26 Sur 0 1002 -2.1 32
2019-08-30 14:00:00 34.5 4 Nordeste 18 Sudeste 0 1002.8 -1.4 36
2019-08-30 13:00:00 32.6 11 Este 23 Este 0 1003.6 -0.6 40
2019-08-30 12:00:00 30.9 13 Este 21 Este 0 1004.1 -0.4 43
2019-08-30 11:00:00 27.8 8 Este 15 Este 0 1004.2 -0.1 49
2019-08-30 10:00:00 24.9 5 Este 9 Este 0 1004.2 0.3 56
2019-08-30 09:00:00 21.6 0 Calma 7 Sudeste 0 1004.5 1 62
2019-08-30 08:00:00 19.4 2 Sudeste 6 Este 0 1004.3 0.5 62
2019-08-30 07:00:00 20 5 Sur 10 Sudeste 0 1003.9 0.2 56
2019-08-30 06:00:00 20.4 5 Sudeste 8 Sudeste 0 1003.5 -0.2 55
2019-08-30 05:00:00 21.6 5 Sudeste 9 Sudeste 0 1003.8 -0.2 50
2019-08-30 04:00:00 22.7 4 Sudeste 13 Sudoeste 0 1003.7 -0.4 45
2019-08-30 03:00:00 24.8 12 Sudoeste 15 Sudoeste 0 1003.7 -0.4 43
2019-08-30 02:00:00 24.9 12 Sudoeste 17 Sur 0 1004 0.5 42
2019-08-30 01:00:00 25.2 9 Sur 13 Sudoeste 0 1004.1 1.5 42
2019-08-30 00:00:00 26.2 10 Sudoeste 14 Sudoeste 0 1004.1 2.4 41
2019-08-29 23:00:00 27.6 8 Sudoeste 23 Sudoeste 0 1003.5 2.3 39
2019-08-29 22:00:00 29.1 18 Sudoeste 30 Sudoeste 0 1002.6 1.5 37
2019-08-29 21:00:00 30.7 13 Sur 28 Sur 0 1001.7 0.6 36
2019-08-29 20:00:00 33.3 18 Sur 30 Sur 0 1001.2 -0.3 33
2019-08-29 19:00:00 34.7 19 Sur 31 Sur 0 1001.1 -0.8 32
2019-08-29 18:00:00 35.9 18 Sur 29 Sur 0 1001.1 -1.3 31
2019-08-29 17:00:00 34.7 17 Sur 30 Sur 0 1001.5 -1.3 32
2019-08-29 16:00:00 35.6 19 Sur 33 Sur 0 1001.9 -1.3 32
2019-08-29 15:00:00 34.7 15 Sur 27 Sudeste 0 1002.4 -1.1 34
2019-08-29 14:00:00 32.2 6 Este 19 Este 0 1002.8 -0.5 38
2019-08-29 13:00:00 32.1 7 Este 22 Este 0 1003.2 0.2 39
2019-08-29 12:00:00 29.6 11 Sudeste 19 Sudeste 0 1003.5 0.9 41
2019-08-29 11:00:00 27.1 7 Sudeste 13 Este 0 1003.3 1.2 45
2019-08-29 10:00:00 25.7 7 Este 10 Este 0 1003 1.3 45
2019-08-29 09:00:00 23.4 0 Calma 6 Sur 0 1002.6 1 46
2019-08-29 08:00:00 22.8 0 Calma 8 Sudeste 0 1002.1 0.7 44
2019-08-29 07:00:00 22.9 8 Sudeste 11 Sudeste 0 1001.7 0.2 44
2019-08-29 06:00:00 24.2 0 Calma 21 Sur 0 1001.6 0.1 41
2019-08-29 05:00:00 25.8 12 Sudoeste 22 Sur 0 1001.4 0.2 38
2019-08-29 04:00:00 25.5 12 Sur 22 Sur 0 1001.5 0.5 39
2019-08-29 03:00:00 25.8 9 Sur 23 Sudoeste 0 1001.5 0.6 41
2019-08-29 02:00:00 26.2 18 Sudoeste 26 Sudoeste 0 1001.2 0.7 43
2019-08-29 01:00:00 26.7 17 Sudoeste 23 Sudoeste 0 1001 1.3 41
2019-08-29 00:00:00 27.7 15 Sudoeste 26 Sudoeste 0 1000.9 2 38
2019-08-28 23:00:00 28.9 17 Sudoeste 25 Sudoeste 0 1000.5 1.8 37
2019-08-28 22:00:00 29.6 9 Sur 15 Sur 0 999.7 0.9 36
2019-08-28 21:00:00 32.2 0 Calma 6 Sur 0 998.9 0 31
2019-08-28 20:00:00 34.7 2 Este 12 Sudoeste 0 998.7 -0.6 30
2019-08-28 19:00:00 35.2 4 Este 19 Sudeste 0 998.8 -1.2 31
2019-08-28 18:00:00 35.1 8 Este 22 Este 0 998.9 -1.6 31
2019-08-28 17:00:00 35.2 6 Sudeste 18 Sudeste 0 999.3 -1.9 32
2019-08-28 16:00:00 34.7 3 Norte 16 Norte 0 1000 -1.8 34
2019-08-28 15:00:00 34 3 Sudeste 19 Este 0 1000.5 -1.8 38
2019-08-28 14:00:00 32.1 9 Nordeste 16 Este 0 1001.2 -0.9 42
2019-08-28 13:00:00 30.3 6 Este 18 Nordeste 0 1001.8 -0.5 49
2019-08-28 12:00:00 28.5 6 Este 13 Norte 0 1002.3 0.2 55
2019-08-28 11:00:00 25.5 5 Este 12 Este 0 1002.1 0.2 64
2019-08-28 10:00:00 23.1 2 Este 8 Este 0 1002.3 0.7 73
2019-08-28 09:00:00 20.6 3 Sudeste 6 Sur 0 1002.1 0.7 83
2019-08-28 08:00:00 18.3 3 Sur 8 Sudeste 0 1001.9 0.5 87
2019-08-28 07:00:00 18.6 0 Calma 4 Sur 0 1001.6 0.4 80
2019-08-28 06:00:00 19.4 3 Sur 5 Sudeste 0 1001.4 -0.3 79
2019-08-28 05:00:00 19.5 4 Sudeste 10 Sudeste 0 1001.4 -0.5 75
2019-08-28 04:00:00 20.8 5 Sudeste 8 Sudeste 0 1001.2 -0.9 69
2019-08-28 03:00:00 21.8 3 Sudeste 19 Sudoeste 0 1001.7 0.1 66
2019-08-28 02:00:00 22.5 11 Sudoeste 15 Sudoeste 0 1001.9 0.9 62
2019-08-28 01:00:00 23.7 6 Sudoeste 16 Sudoeste 0 1002.1 2.2 60
2019-08-28 00:00:00 24.7 5 Sudeste 34 Oeste 0 1001.6 2.3 58
2019-08-27 23:00:00 25.6 18 Oeste 37 Oeste 0 1001 2 53
2019-08-27 22:00:00 28.2 9 Oeste 18 Oeste 0 999.9 0.9 39
2019-08-27 21:00:00 29.9 8 Oeste 17 Sudoeste 0 999.3 0.2 38
2019-08-27 20:00:00 31.9 3 Sudoeste 15 Noroeste 0 999 -0.5 38
2019-08-27 19:00:00 32.3 2 Oeste 19 Norte 0 999 -1.2 38
2019-08-27 18:00:00 32 6 Oeste 19 Oeste 0 999.1 -1.7 38
2019-08-27 17:00:00 31.9 2 Sudoeste 16 Noroeste 0 999.5 -1.8 41
2019-08-27 16:00:00 31 6 Noroeste 32 Noroeste 0 1000.2 -1.9 46
2019-08-27 15:00:00 29.2 8 Este 19 Noroeste 0 1000.8 -1.7 55
2019-08-27 14:00:00 27.2 6 Nordeste 17 Este 0 1001.3 -1.5 61
2019-08-27 13:00:00 26.5 5 Este 14 Noroeste 0 1002.1 -0.2 64
2019-08-27 12:00:00 24.5 7 Sudoeste 15 Sudoeste 0 1002.5 0.6 70
2019-08-27 11:00:00 22.1 7 Sudoeste 16 Sudoeste 0 1002.8 1.5 78
2019-08-27 10:00:00 21.3 8 Oeste 17 Oeste 0 1002.3 1.6 81
2019-08-27 09:00:00 20.1 4 Oeste 9 Oeste 0 1001.9 1.5 83
2019-08-27 08:00:00 19.5 4 Oeste 12 Oeste 0 1001.3 0.7 83
2019-08-27 07:00:00 19.9 7 Sudoeste 15 Sudoeste 0 1000.7 0.2 83
2019-08-27 06:00:00 19.1 3 Oeste 8 Sudoeste 0 1000.4 0.1 85
2019-08-27 05:00:00 18.1 0 Calma 8 Sudeste 0 1000.6 0.1 85
2019-08-27 04:00:00 18.5 3 Sudeste 6 Sudeste 0 1000.5 -0.1 80
2019-08-27 03:00:00 19.2 2 Sudoeste 13 Sudeste 0 1000.3 0.1 76
2019-08-27 02:00:00 20.6 3 Sudeste 9 Sudeste 0 1000.5 0 69
2019-08-27 01:00:00 22.2 2 Norte 17 Sudoeste 0 1000.6 0.1 65
2019-08-27 00:00:00 22.6 12 Sudoeste 22 Oeste 0 1000.2 1.4 63
2019-08-26 23:00:00 22 0 Calma 26 Este 0 1000.5 3 63
2019-08-26 22:00:00 25.1 3 Norte 22 Este 0 1000.5 4.3 61
2019-08-26 21:00:00 25.4 6 Este 19 Nordeste 0 998.8 3 57
2019-08-26 20:00:00 26.1 8 Nordeste 35 Oeste 0 997.5 0.7 52
2019-08-26 19:00:00 30.2 14 Sur 33 Sur 0 996.2 -0.8 51
2019-08-26 18:00:00 31.2 14 Sur 22 Sur 0 995.8 -2 47
2019-08-26 17:00:00 31.6 12 Sur 28 Sur 0 996.8 -1.7 46
2019-08-26 16:00:00 32.3 8 Sudoeste 24 Oeste 0 997 -1.8 47
2019-08-26 15:00:00 30.8 11 Sur 20 Sur 0 997.8 -1.1 51
2019-08-26 14:00:00 29.6 6 Sur 16 Sudoeste 0 998.5 -0.3 56
2019-08-26 13:00:00 28.2 5 Nordeste 15 Este 0 998.8 0 60
2019-08-26 12:00:00 27 6 Este 12 Este 0 998.9 0.5 63
2019-08-26 11:00:00 25.8 8 Este 12 Este 0 998.8 1.1 64
2019-08-26 10:00:00 24.9 4 Sudeste 11 Sur 0 998.8 1.6 66
2019-08-26 09:00:00 24.2 6 Sur 13 Sur 0 998.4 1.1 66
2019-08-26 08:00:00 23.8 10 Sur 21 Sudoeste 0 997.7 0.1 65
2019-08-26 07:00:00 23.9 18 Sudoeste 25 Sudoeste 0 997.2 -0.8 62
2019-08-26 06:00:00 24.3 15 Sudoeste 24 Sudoeste 0 997.3 -1.3 61
2019-08-26 05:00:00 24.3 16 Sudoeste 31 Sudoeste 0 997.6 -1.2 61
2019-08-26 04:00:00 24.3 12 Sudoeste 21 Sudoeste 0 998 -0.6 61
2019-08-26 03:00:00 24.9 17 Sur 28 Sur 0 998.6 0.2 62
2019-08-26 02:00:00 24.8 11 Sur 38 Sudoeste 0 998.8 0.6 57
2019-08-26 01:00:00 25.4 20 Sudoeste 29 Sudoeste 0 998.6 0.7 54
2019-08-26 00:00:00 25.8 22 Sur 35 Sudoeste 0 998.4 1.5 53
2019-08-25 23:00:00 26.1 21 Sur 33 Sur 0 998.2 1.7 53
2019-08-25 22:00:00 27.1 23 Sudoeste 41 Sur 0 997.9 1.4 52
2019-08-25 21:00:00 28.4 25 Sur 41 Sur 0 996.9 0.3 49
2019-08-25 20:00:00 30.9 21 Sur 35 Sur 0 996.5 -0.6 42
2019-08-25 19:00:00 33.3 20 Sur 31 Sur 0 996.5 -1.2 38
2019-08-25 18:00:00 34 22 Sur 33 Sur 0 996.6 -1.9 36
2019-08-25 17:00:00 34.8 18 Sur 31 Sudeste 0 997.1 -2.2 35
2019-08-25 16:00:00 34.2 19 Sur 35 Sudeste 0 997.7 -2.3 37
2019-08-25 15:00:00 33.6 17 Sur 31 Sur 0 998.5 -2.2 44
2019-08-25 14:00:00 32.7 15 Sur 27 Sudeste 0 999.3 -1.7 47
2019-08-25 13:00:00 31.6 8 Sur 23 Este 0 1000 -1 51
2019-08-25 12:00:00 29.7 8 Este 21 Este 0 1000.7 -0.3 56
2019-08-25 11:00:00 28.5 6 Sudeste 20 Sudeste 0 1001 -0.1 60
2019-08-25 10:00:00 24.7 9 Sudeste 15 Sudeste 0 1001 0.1 65
2019-08-25 09:00:00 21.2 9 Sudeste 12 Sudeste 0 1001 0.2 67
2019-08-25 08:00:00 19.2 2 Sur 5 Sudeste 0 1001.1 0.1 69
2019-08-25 07:00:00 19.7 0 Calma 6 Sur 0 1000.9 -0.5 68
2019-08-25 06:00:00 20.4 3 Sur 10 Sur 0 1000.8 -0.7 67
2019-08-25 05:00:00 21.2 0 Calma 10 Oeste 0 1001 -0.5 63
2019-08-25 04:00:00 21.9 0 Calma 7 Sudeste 0 1001.4 0 63
2019-08-25 03:00:00 23.4 5 Sudeste 19 Sudoeste 0 1001.5 0.5 59
2019-08-25 02:00:00 24.3 12 Oeste 23 Sudoeste 0 1001.5 1.1 58
2019-08-25 01:00:00 25.3 14 Sudoeste 21 Sudoeste 0 1001.4 2 53
2019-08-25 00:00:00 26.9 10 Sur 29 Sur 0 1001 2.4 44
2019-08-24 23:00:00 28.1 19 Sudoeste 39 Sur 0 1000.4 1.7 41
2019-08-24 22:00:00 28.8 15 Sur 33 Sur 0 999.4 0.4 35
2019-08-24 21:00:00 31 15 Sur 27 Sur 0 998.6 -0.6 33
2019-08-24 20:00:00 34 18 Sur 28 Sur 0 998.7 -0.9 31
2019-08-24 19:00:00 35.6 11 Sur 22 Sur 0 999 -1.1 35
2019-08-24 18:00:00 35.9 12 Sudeste 22 Sudeste 0 999.2 -1.4 35
2019-08-24 17:00:00 36.1 11 Sur 23 Sudoeste 0 999.6 -1.7 36
2019-08-24 16:00:00 35.2 7 Este 23 Sudeste 0 1000.1 -2.1 38
2019-08-24 15:00:00 34.6 11 Este 24 Sudeste 0 1000.6 -1.9 38
2019-08-24 14:00:00 33.3 7 Sudeste 21 Este 0 1001.3 -1.4 42
2019-08-24 13:00:00 31.5 10 Este 23 Este 0 1002.2 -0.3 45
2019-08-24 12:00:00 29.7 12 Este 24 Este 0 1002.5 0.2 48
2019-08-24 11:00:00 27.7 14 Este 23 Este 0 1002.7 0.8 51
2019-08-24 10:00:00 25 6 Este 10 Este 0 1002.5 1 57
2019-08-24 09:00:00 22.5 3 Este 8 Sudeste 0 1002.3 0.7 59
2019-08-24 08:00:00 19.9 5 Sur 11 Sudeste 0 1001.9 0 59
2019-08-24 07:00:00 21.6 7 Sudeste 19 Sur 0 1001.5 -0.4 55
2019-08-24 06:00:00 23.4 11 Sur 19 Sur 0 1001.6 -0.4 53
2019-08-24 05:00:00 23.6 11 Sur 20 Sur 0 1001.9 -0.4 50
2019-08-24 04:00:00 24.5 13 Sur 23 Sur 0 1001.9 0.4 48
2019-08-24 03:00:00 24.5 15 Sur 22 Sur 0 1002 0.9 46
2019-08-24 02:00:00 24.4 8 Sur 23 Sudoeste 0 1002.3 1.6 44
2019-08-24 01:00:00 25.2 18 Sur 26 Sur 0 1001.5 1.8 41
2019-08-24 00:00:00 25.4 13 Sur 20 Sur 0 1001.1 1.9 40
2019-08-23 23:00:00 26 6 Sudoeste 33 Sudoeste 0 1000.7 1.7 41
2019-08-23 22:00:00 27.3 22 Sur 35 Sur 0 999.7 0.3 38
2019-08-23 21:00:00 29.2 21 Sur 38 Sur 0 999.2 -0.3 37
2019-08-23 20:00:00 32.2 25 Sur 37 Sur 0 999 -0.6 33
2019-08-23 19:00:00 34.1 22 Sur 35 Sudoeste 0 999.4 -0.7 33
2019-08-23 18:00:00 35.2 19 Sur 31 Sudoeste 0 999.5 -1.5 33
2019-08-23 17:00:00 35.7 16 Sur 36 Sudeste 0 999.6 -2.2 33
2019-08-23 16:00:00 35.5 8 Sur 32 Sudeste 0 1000.1 -2.1 34
2019-08-23 15:00:00 34.2 16 Sudeste 32 Este 0 1001 -1.8 37
2019-08-23 14:00:00 33.1 15 Sudeste 28 Este 0 1001.8 -1.3 41
2019-08-23 13:00:00 31.4 17 Este 27 Este 0 1002.2 -0.8 46
2019-08-23 12:00:00 29.6 14 Este 24 Sudeste 0 1002.8 0.2 52
2019-08-23 11:00:00 27.5 10 Este 17 Este 0 1003.1 0.8 60
2019-08-23 10:00:00 25.5 7 Este 14 Este 0 1003 1.2 67
2019-08-23 09:00:00 23.2 5 Este 7 Este 0 1002.6 0.8 71
2019-08-23 08:00:00 20.7 0 Calma 3 Noroeste 0 1002.3 0.8 72
2019-08-23 07:00:00 21.1 0 Calma 6 Norte 0 1001.8 0.3 68
2019-08-23 06:00:00 21.8 0 Calma 7 Norte 0 1001.8 0.4 68
2019-08-23 05:00:00 22.9 7 Sudoeste 13 Oeste 0 1001.5 -0.1 67
2019-08-23 04:00:00 23.7 8 Sudoeste 12 Sudoeste 0 1001.5 0.2 66
2019-08-23 03:00:00 24.4 3 Norte 20 Sur 0 1001.4 0 64
2019-08-23 02:00:00 25.6 13 Sur 29 Sur 0 1001.6 0.7 62
2019-08-23 01:00:00 25.7 19 Sudoeste 27 Sudoeste 0 1001.3 0.8 62
2019-08-23 00:00:00 25.7 9 Sur 25 Sur 0 1001.4 1.7 61